sensor_id;sensor_type;location;lat;lon;timestamp;P1;durP1;ratioP1;P2;durP2;ratioP2
55218;SDS011;41088;44.012;20.902;2022-09-13T00:00:55;7.05;;;3.80;;
55218;SDS011;41088;44.012;20.902;2022-09-13T00:03:21;8.18;;;3.38;;
55218;SDS011;41088;44.012;20.902;2022-09-13T00:05:47;5.07;;;3.40;;
55218;SDS011;41088;44.012;20.902;2022-09-13T00:08:14;6.90;;;3.60;;
55218;SDS011;41088;44.012;20.902;2022-09-13T00:10:41;6.25;;;3.63;;
55218;SDS011;41088;44.012;20.902;2022-09-13T00:13:08;7.65;;;3.53;;
55218;SDS011;41088;44.012;20.902;2022-09-13T00:15:35;7.75;;;3.50;;
55218;SDS011;41088;44.012;20.902;2022-09-13T00:18:02;6.03;;;3.35;;
55218;SDS011;41088;44.012;20.902;2022-09-13T00:20:38;5.88;;;3.40;;
55218;SDS011;41088;44.012;20.902;2022-09-13T00:23:08;7.53;;;3.55;;
55218;SDS011;41088;44.012;20.902;2022-09-13T00:25:40;8.48;;;3.70;;
55218;SDS011;41088;44.012;20.902;2022-09-13T00:28:14;7.80;;;4.00;;
55218;SDS011;41088;44.012;20.902;2022-09-13T00:30:40;6.82;;;3.53;;
55218;SDS011;41088;44.012;20.902;2022-09-13T00:33:06;9.30;;;3.92;;
55218;SDS011;41088;44.012;20.902;2022-09-13T00:35:36;10.18;;;4.05;;
55218;SDS011;41088;44.012;20.902;2022-09-13T00:38:02;12.00;;;4.40;;
55218;SDS011;41088;44.012;20.902;2022-09-13T00:40:35;8.38;;;4.18;;
55218;SDS011;41088;44.012;20.902;2022-09-13T00:43:02;9.27;;;4.28;;
55218;SDS011;41088;44.012;20.902;2022-09-13T00:45:28;8.38;;;5.15;;
55218;SDS011;41088;44.012;20.902;2022-09-13T00:47:55;5.72;;;4.20;;
55218;SDS011;41088;44.012;20.902;2022-09-13T00:50:28;6.97;;;4.05;;
55218;SDS011;41088;44.012;20.902;2022-09-13T00:53:18;7.25;;;3.88;;
55218;SDS011;41088;44.012;20.902;2022-09-13T00:55:46;6.75;;;3.92;;
55218;SDS011;41088;44.012;20.902;2022-09-13T00:58:22;6.30;;;4.07;;
55218;SDS011;41088;44.012;20.902;2022-09-13T01:00:53;6.32;;;3.88;;
55218;SDS011;41088;44.012;20.902;2022-09-13T01:03:22;5.95;;;3.80;;
55218;SDS011;41088;44.012;20.902;2022-09-13T01:05:51;7.10;;;3.90;;
55218;SDS011;41088;44.012;20.902;2022-09-13T01:08:19;8.57;;;4.00;;
55218;SDS011;41088;44.012;20.902;2022-09-13T01:10:47;6.28;;;3.70;;
55218;SDS011;41088;44.012;20.902;2022-09-13T01:13:28;9.88;;;4.18;;
55218;SDS011;41088;44.012;20.902;2022-09-13T01:15:56;7.47;;;4.18;;
55218;SDS011;41088;44.012;20.902;2022-09-13T01:18:23;8.43;;;4.32;;
55218;SDS011;41088;44.012;20.902;2022-09-13T01:23:55;7.05;;;3.70;;
55218;SDS011;41088;44.012;20.902;2022-09-13T01:34:24;6.40;;;3.60;;
55218;SDS011;41088;44.012;20.902;2022-09-13T01:42:38;9.30;;;4.20;;
55218;SDS011;41088;44.012;20.902;2022-09-13T01:47:58;10.57;;;5.57;;
55218;SDS011;41088;44.012;20.902;2022-09-13T01:53:33;6.90;;;4.35;;
55218;SDS011;41088;44.012;20.902;2022-09-13T01:56:05;7.13;;;4.15;;
55218;SDS011;41088;44.012;20.902;2022-09-13T01:58:38;6.00;;;3.80;;
55218;SDS011;41088;44.012;20.902;2022-09-13T02:01:18;6.85;;;3.45;;
55218;SDS011;41088;44.012;20.902;2022-09-13T02:03:54;7.50;;;3.72;;
55218;SDS011;41088;44.012;20.902;2022-09-13T02:06:26;6.05;;;3.42;;
55218;SDS011;41088;44.012;20.902;2022-09-13T02:09:12;7.90;;;3.65;;
55218;SDS011;41088;44.012;20.902;2022-09-13T02:11:43;6.30;;;3.35;;
55218;SDS011;41088;44.012;20.902;2022-09-13T02:14:26;11.32;;;3.55;;
55218;SDS011;41088;44.012;20.902;2022-09-13T02:16:58;6.43;;;3.17;;
55218;SDS011;41088;44.012;20.902;2022-09-13T02:21:59;6.20;;;3.60;;
55218;SDS011;41088;44.012;20.902;2022-09-13T02:24:28;10.25;;;3.47;;
55218;SDS011;41088;44.012;20.902;2022-09-13T02:26:57;6.60;;;3.47;;
55218;SDS011;41088;44.012;20.902;2022-09-13T02:29:24;5.65;;;3.60;;
55218;SDS011;41088;44.012;20.902;2022-09-13T02:31:58;6.32;;;3.42;;
55218;SDS011;41088;44.012;20.902;2022-09-13T02:34:28;6.22;;;3.42;;
55218;SDS011;41088;44.012;20.902;2022-09-13T02:36:56;5.00;;;3.42;;
55218;SDS011;41088;44.012;20.902;2022-09-13T02:39:24;6.20;;;3.53;;
55218;SDS011;41088;44.012;20.902;2022-09-13T02:42:35;8.18;;;3.38;;
55218;SDS011;41088;44.012;20.902;2022-09-13T02:44:42;6.67;;;3.70;;
55218;SDS011;41088;44.012;20.902;2022-09-13T02:55:07;6.82;;;3.90;;
55218;SDS011;41088;44.012;20.902;2022-09-13T03:00:29;8.65;;;3.65;;
55218;SDS011;41088;44.012;20.902;2022-09-13T03:02:56;6.60;;;3.63;;
55218;SDS011;41088;44.012;20.902;2022-09-13T03:05:23;7.60;;;3.60;;
55218;SDS011;41088;44.012;20.902;2022-09-13T03:07:50;6.63;;;4.05;;
55218;SDS011;41088;44.012;20.902;2022-09-13T03:10:17;8.73;;;3.83;;
55218;SDS011;41088;44.012;20.902;2022-09-13T03:12:51;7.72;;;4.00;;
55218;SDS011;41088;44.012;20.902;2022-09-13T03:23:29;6.68;;;3.45;;
55218;SDS011;41088;44.012;20.902;2022-09-13T03:28:44;9.43;;;3.65;;
55218;SDS011;41088;44.012;20.902;2022-09-13T03:34:12;7.78;;;3.72;;
55218;SDS011;41088;44.012;20.902;2022-09-13T03:41:46;6.63;;;4.03;;
55218;SDS011;41088;44.012;20.902;2022-09-13T03:44:15;8.10;;;4.03;;
55218;SDS011;41088;44.012;20.902;2022-09-13T03:46:44;7.65;;;4.15;;
55218;SDS011;41088;44.012;20.902;2022-09-13T03:49:13;7.15;;;4.15;;
55218;SDS011;41088;44.012;20.902;2022-09-13T03:51:39;7.72;;;3.97;;
55218;SDS011;41088;44.012;20.902;2022-09-13T03:54:17;8.63;;;4.30;;
55218;SDS011;41088;44.012;20.902;2022-09-13T03:57:04;10.98;;;4.50;;
55218;SDS011;41088;44.012;20.902;2022-09-13T03:59:30;14.43;;;5.72;;
55218;SDS011;41088;44.012;20.902;2022-09-13T04:02:02;11.02;;;5.40;;
55218;SDS011;41088;44.012;20.902;2022-09-13T04:04:35;10.95;;;5.70;;
55218;SDS011;41088;44.012;20.902;2022-09-13T04:07:01;11.43;;;4.82;;
55218;SDS011;41088;44.012;20.902;2022-09-13T04:09:30;7.72;;;4.38;;
55218;SDS011;41088;44.012;20.902;2022-09-13T04:11:57;9.45;;;4.70;;
55218;SDS011;41088;44.012;20.902;2022-09-13T04:14:23;9.82;;;4.95;;
55218;SDS011;41088;44.012;20.902;2022-09-13T04:16:51;11.55;;;5.03;;
55218;SDS011;41088;44.012;20.902;2022-09-13T04:19:18;9.43;;;4.80;;
55218;SDS011;41088;44.012;20.902;2022-09-13T04:21:46;8.68;;;4.95;;
55218;SDS011;41088;44.012;20.902;2022-09-13T04:24:12;13.77;;;5.28;;
55218;SDS011;41088;44.012;20.902;2022-09-13T04:26:39;9.27;;;4.75;;
55218;SDS011;41088;44.012;20.902;2022-09-13T04:29:05;9.98;;;5.10;;
55218;SDS011;41088;44.012;20.902;2022-09-13T04:31:31;10.60;;;4.80;;
55218;SDS011;41088;44.012;20.902;2022-09-13T04:33:58;8.68;;;4.47;;
55218;SDS011;41088;44.012;20.902;2022-09-13T04:36:27;7.22;;;4.35;;
55218;SDS011;41088;44.012;20.902;2022-09-13T04:38:53;11.05;;;5.07;;
55218;SDS011;41088;44.012;20.902;2022-09-13T04:41:20;10.88;;;5.18;;
55218;SDS011;41088;44.012;20.902;2022-09-13T04:43:49;11.02;;;5.10;;
55218;SDS011;41088;44.012;20.902;2022-09-13T04:46:16;11.60;;;5.57;;
55218;SDS011;41088;44.012;20.902;2022-09-13T04:48:49;14.10;;;5.30;;
55218;SDS011;41088;44.012;20.902;2022-09-13T04:53:51;11.35;;;4.80;;
55218;SDS011;41088;44.012;20.902;2022-09-13T04:56:19;9.25;;;5.30;;
55218;SDS011;41088;44.012;20.902;2022-09-13T05:09:38;14.82;;;4.63;;
55218;SDS011;41088;44.012;20.902;2022-09-13T05:17:05;15.10;;;5.13;;
55218;SDS011;41088;44.012;20.902;2022-09-13T05:19:34;9.85;;;4.95;;
55218;SDS011;41088;44.012;20.902;2022-09-13T05:22:01;11.23;;;4.90;;
55218;SDS011;41088;44.012;20.902;2022-09-13T05:24:31;8.80;;;5.20;;
55218;SDS011;41088;44.012;20.902;2022-09-13T05:29:33;13.52;;;5.10;;
55218;SDS011;41088;44.012;20.902;2022-09-13T05:32:00;9.57;;;4.82;;
55218;SDS011;41088;44.012;20.902;2022-09-13T05:34:26;10.55;;;5.43;;
55218;SDS011;41088;44.012;20.902;2022-09-13T05:36:59;11.02;;;5.32;;
55218;SDS011;41088;44.012;20.902;2022-09-13T05:39:25;12.20;;;5.30;;
55218;SDS011;41088;44.012;20.902;2022-09-13T05:41:51;11.27;;;5.47;;
55218;SDS011;41088;44.012;20.902;2022-09-13T05:44:17;12.75;;;5.72;;
55218;SDS011;41088;44.012;20.902;2022-09-13T05:47:02;11.90;;;5.85;;
55218;SDS011;41088;44.012;20.902;2022-09-13T05:49:29;15.55;;;6.30;;
55218;SDS011;41088;44.012;20.902;2022-09-13T05:52:02;10.85;;;6.45;;
55218;SDS011;41088;44.012;20.902;2022-09-13T05:57:04;14.55;;;6.00;;
55218;SDS011;41088;44.012;20.902;2022-09-13T05:59:30;14.13;;;6.30;;
55218;SDS011;41088;44.012;20.902;2022-09-13T06:04:35;14.10;;;5.97;;
55218;SDS011;41088;44.012;20.902;2022-09-13T06:07:10;11.15;;;6.20;;
55218;SDS011;41088;44.012;20.902;2022-09-13T06:09:42;14.40;;;6.72;;
55218;SDS011;41088;44.012;20.902;2022-09-13T06:12:09;13.13;;;6.82;;
55218;SDS011;41088;44.012;20.902;2022-09-13T06:14:48;15.95;;;7.07;;
55218;SDS011;41088;44.012;20.902;2022-09-13T06:19:53;9.52;;;5.53;;
55218;SDS011;41088;44.012;20.902;2022-09-13T06:24:55;9.77;;;4.65;;
55218;SDS011;41088;44.012;20.902;2022-09-13T06:27:21;13.73;;;4.60;;
55218;SDS011;41088;44.012;20.902;2022-09-13T06:32:13;9.43;;;3.90;;
55218;SDS011;41088;44.012;20.902;2022-09-13T06:34:42;10.67;;;4.03;;
55218;SDS011;41088;44.012;20.902;2022-09-13T06:37:09;10.85;;;4.10;;
55218;SDS011;41088;44.012;20.902;2022-09-13T06:39:35;13.20;;;3.78;;
55218;SDS011;41088;44.012;20.902;2022-09-13T06:42:01;8.70;;;3.83;;
55218;SDS011;41088;44.012;20.902;2022-09-13T06:44:28;9.23;;;3.83;;
55218;SDS011;41088;44.012;20.902;2022-09-13T06:46:58;9.00;;;4.18;;
55218;SDS011;41088;44.012;20.902;2022-09-13T06:49:24;8.20;;;3.72;;
55218;SDS011;41088;44.012;20.902;2022-09-13T06:51:53;9.10;;;3.42;;
55218;SDS011;41088;44.012;20.902;2022-09-13T06:54:22;10.23;;;3.97;;
55218;SDS011;41088;44.012;20.902;2022-09-13T06:56:48;8.13;;;3.63;;
55218;SDS011;41088;44.012;20.902;2022-09-13T06:59:18;14.20;;;3.60;;
55218;SDS011;41088;44.012;20.902;2022-09-13T07:01:44;6.53;;;3.50;;
55218;SDS011;41088;44.012;20.902;2022-09-13T07:04:11;10.70;;;3.67;;
55218;SDS011;41088;44.012;20.902;2022-09-13T07:06:48;6.50;;;3.60;;
55218;SDS011;41088;44.012;20.902;2022-09-13T07:09:19;6.55;;;3.53;;
55218;SDS011;41088;44.012;20.902;2022-09-13T07:11:55;7.13;;;3.30;;
55218;SDS011;41088;44.012;20.902;2022-09-13T07:14:25;5.47;;;3.10;;
55218;SDS011;41088;44.012;20.902;2022-09-13T07:16:53;6.80;;;3.53;;
55218;SDS011;41088;44.012;20.902;2022-09-13T07:19:20;6.80;;;3.30;;
55218;SDS011;41088;44.012;20.902;2022-09-13T07:21:48;7.25;;;3.60;;
55218;SDS011;41088;44.012;20.902;2022-09-13T07:24:16;4.90;;;3.30;;
55218;SDS011;41088;44.012;20.902;2022-09-13T07:26:42;8.77;;;3.03;;
55218;SDS011;41088;44.012;20.902;2022-09-13T07:29:10;7.95;;;3.00;;
55218;SDS011;41088;44.012;20.902;2022-09-13T07:31:41;6.63;;;3.35;;
55218;SDS011;41088;44.012;20.902;2022-09-13T07:34:12;4.97;;;3.25;;
55218;SDS011;41088;44.012;20.902;2022-09-13T07:36:58;6.65;;;2.90;;
55218;SDS011;41088;44.012;20.902;2022-09-13T07:39:24;5.55;;;3.20;;
55218;SDS011;41088;44.012;20.902;2022-09-13T07:41:54;5.50;;;3.20;;
55218;SDS011;41088;44.012;20.902;2022-09-13T07:44:23;7.80;;;3.08;;
55218;SDS011;41088;44.012;20.902;2022-09-13T07:46:49;7.18;;;3.15;;
55218;SDS011;41088;44.012;20.902;2022-09-13T07:49:16;7.30;;;3.40;;
55218;SDS011;41088;44.012;20.902;2022-09-13T07:51:43;8.90;;;3.55;;
55218;SDS011;41088;44.012;20.902;2022-09-13T07:54:10;6.90;;;3.28;;
55218;SDS011;41088;44.012;20.902;2022-09-13T07:56:38;8.68;;;3.00;;
55218;SDS011;41088;44.012;20.902;2022-09-13T07:59:12;11.80;;;3.53;;
55218;SDS011;41088;44.012;20.902;2022-09-13T08:01:45;108.50;;;8.07;;
55218;SDS011;41088;44.012;20.902;2022-09-13T08:04:16;8.77;;;3.50;;
55218;SDS011;41088;44.012;20.902;2022-09-13T08:06:48;5.18;;;2.92;;
55218;SDS011;41088;44.012;20.902;2022-09-13T08:09:14;9.55;;;3.17;;
55218;SDS011;41088;44.012;20.902;2022-09-13T08:11:42;8.70;;;3.20;;
55218;SDS011;41088;44.012;20.902;2022-09-13T08:14:35;6.30;;;3.30;;
55218;SDS011;41088;44.012;20.902;2022-09-13T08:17:03;8.60;;;2.88;;
55218;SDS011;41088;44.012;20.902;2022-09-13T08:19:35;6.32;;;2.80;;
55218;SDS011;41088;44.012;20.902;2022-09-13T08:22:05;5.68;;;2.88;;
55218;SDS011;41088;44.012;20.902;2022-09-13T08:24:31;8.82;;;3.30;;
55218;SDS011;41088;44.012;20.902;2022-09-13T08:26:59;7.88;;;3.38;;
55218;SDS011;41088;44.012;20.902;2022-09-13T08:29:34;9.63;;;3.10;;
55218;SDS011;41088;44.012;20.902;2022-09-13T08:32:01;5.05;;;3.05;;
55218;SDS011;41088;44.012;20.902;2022-09-13T08:34:26;4.57;;;3.00;;
55218;SDS011;41088;44.012;20.902;2022-09-13T08:36:53;6.55;;;2.80;;
55218;SDS011;41088;44.012;20.902;2022-09-13T08:39:22;10.43;;;2.75;;
55218;SDS011;41088;44.012;20.902;2022-09-13T08:41:58;4.93;;;2.50;;
55218;SDS011;41088;44.012;20.902;2022-09-13T08:44:31;3.90;;;2.50;;
55218;SDS011;41088;44.012;20.902;2022-09-13T08:49:42;6.93;;;2.60;;
55218;SDS011;41088;44.012;20.902;2022-09-13T08:54:41;5.28;;;2.60;;
55218;SDS011;41088;44.012;20.902;2022-09-13T09:02:29;4.88;;;2.35;;
55218;SDS011;41088;44.012;20.902;2022-09-13T09:10:23;4.43;;;2.40;;
55218;SDS011;41088;44.012;20.902;2022-09-13T09:13:02;5.55;;;2.30;;
55218;SDS011;41088;44.012;20.902;2022-09-13T09:15:39;5.25;;;2.45;;
55218;SDS011;41088;44.012;20.902;2022-09-13T09:18:22;6.65;;;2.35;;
55218;SDS011;41088;44.012;20.902;2022-09-13T09:20:52;4.18;;;2.17;;
55218;SDS011;41088;44.012;20.902;2022-09-13T09:26:24;2.60;;;2.10;;
55218;SDS011;41088;44.012;20.902;2022-09-13T09:28:59;6.28;;;2.20;;
55218;SDS011;41088;44.012;20.902;2022-09-13T09:31:30;4.18;;;2.00;;
55218;SDS011;41088;44.012;20.902;2022-09-13T09:36:44;4.82;;;2.28;;
55218;SDS011;41088;44.012;20.902;2022-09-13T09:39:14;3.65;;;2.05;;
55218;SDS011;41088;44.012;20.902;2022-09-13T09:41:41;4.10;;;2.00;;
55218;SDS011;41088;44.012;20.902;2022-09-13T09:44:17;5.90;;;2.15;;
55218;SDS011;41088;44.012;20.902;2022-09-13T09:46:49;3.35;;;2.22;;
55218;SDS011;41088;44.012;20.902;2022-09-13T09:49:36;3.22;;;2.20;;
55218;SDS011;41088;44.012;20.902;2022-09-13T09:52:28;3.60;;;2.20;;
55218;SDS011;41088;44.012;20.902;2022-09-13T09:55:11;4.28;;;1.90;;
55218;SDS011;41088;44.012;20.902;2022-09-13T09:57:55;3.47;;;1.80;;
55218;SDS011;41088;44.012;20.902;2022-09-13T10:00:26;3.83;;;1.80;;
55218;SDS011;41088;44.012;20.902;2022-09-13T10:02:57;4.95;;;2.10;;
55218;SDS011;41088;44.012;20.902;2022-09-13T10:05:43;5.05;;;1.98;;
55218;SDS011;41088;44.012;20.902;2022-09-13T10:08:24;6.88;;;2.00;;
55218;SDS011;41088;44.012;20.902;2022-09-13T10:10:56;2.00;;;1.67;;
55218;SDS011;41088;44.012;20.902;2022-09-13T10:13:25;5.30;;;2.17;;
55218;SDS011;41088;44.012;20.902;2022-09-13T10:15:53;7.05;;;1.75;;
55218;SDS011;41088;44.012;20.902;2022-09-13T10:18:22;4.22;;;1.60;;
55218;SDS011;41088;44.012;20.902;2022-09-13T10:23:43;5.07;;;1.67;;
55218;SDS011;41088;44.012;20.902;2022-09-13T10:31:40;4.45;;;1.90;;
55218;SDS011;41088;44.012;20.902;2022-09-13T10:34:25;2.50;;;1.63;;
55218;SDS011;41088;44.012;20.902;2022-09-13T10:37:03;4.43;;;2.00;;
55218;SDS011;41088;44.012;20.902;2022-09-13T10:39:52;2.83;;;1.80;;
55218;SDS011;41088;44.012;20.902;2022-09-13T10:42:20;4.38;;;2.10;;
55218;SDS011;41088;44.012;20.902;2022-09-13T10:50:26;11.10;;;1.90;;
55218;SDS011;41088;44.012;20.902;2022-09-13T10:52:56;3.08;;;2.00;;
55218;SDS011;41088;44.012;20.902;2022-09-13T10:55:25;3.22;;;1.90;;
55218;SDS011;41088;44.012;20.902;2022-09-13T10:57:54;4.00;;;1.95;;
55218;SDS011;41088;44.012;20.902;2022-09-13T11:00:44;3.55;;;2.00;;
55218;SDS011;41088;44.012;20.902;2022-09-13T11:06:10;5.13;;;1.75;;
55218;SDS011;41088;44.012;20.902;2022-09-13T11:09:19;4.97;;;2.08;;
55218;SDS011;41088;44.012;20.902;2022-09-13T11:26:38;3.58;;;2.10;;
55218;SDS011;41088;44.012;20.902;2022-09-13T11:32:05;3.80;;;2.13;;
55218;SDS011;41088;44.012;20.902;2022-09-13T11:40:57;5.93;;;2.05;;
55218;SDS011;41088;44.012;20.902;2022-09-13T11:43:51;5.70;;;2.28;;
55218;SDS011;41088;44.012;20.902;2022-09-13T11:46:23;6.80;;;2.40;;
55218;SDS011;41088;44.012;20.902;2022-09-13T11:56:53;2.70;;;1.95;;
55218;SDS011;41088;44.012;20.902;2022-09-13T12:01:53;5.88;;;2.40;;
55218;SDS011;41088;44.012;20.902;2022-09-13T12:04:29;6.38;;;2.13;;
55218;SDS011;41088;44.012;20.902;2022-09-13T12:07:00;3.92;;;2.20;;
55218;SDS011;41088;44.012;20.902;2022-09-13T12:09:29;2.83;;;1.70;;
55218;SDS011;41088;44.012;20.902;2022-09-13T12:12:00;2.57;;;1.77;;
55218;SDS011;41088;44.012;20.902;2022-09-13T12:14:53;4.55;;;1.90;;
55218;SDS011;41088;44.012;20.902;2022-09-13T12:17:24;4.70;;;2.20;;
55218;SDS011;41088;44.012;20.902;2022-09-13T12:19:53;5.63;;;1.80;;
55218;SDS011;41088;44.012;20.902;2022-09-13T12:22:22;3.00;;;1.80;;
55218;SDS011;41088;44.012;20.902;2022-09-13T12:24:52;2.53;;;1.70;;
55218;SDS011;41088;44.012;20.902;2022-09-13T12:29:47;3.10;;;1.80;;
55218;SDS011;41088;44.012;20.902;2022-09-13T12:32:16;2.85;;;1.70;;
55218;SDS011;41088;44.012;20.902;2022-09-13T12:39:59;4.30;;;2.03;;
55218;SDS011;41088;44.012;20.902;2022-09-13T12:45:01;5.60;;;3.78;;
55218;SDS011;41088;44.012;20.902;2022-09-13T12:47:36;4.18;;;2.53;;
55218;SDS011;41088;44.012;20.902;2022-09-13T12:52:43;5.72;;;2.03;;
55218;SDS011;41088;44.012;20.902;2022-09-13T12:55:27;7.68;;;3.80;;
55218;SDS011;41088;44.012;20.902;2022-09-13T13:01:23;3.40;;;1.80;;
55218;SDS011;41088;44.012;20.902;2022-09-13T13:03:55;3.15;;;2.00;;
55218;SDS011;41088;44.012;20.902;2022-09-13T13:06:35;3.35;;;1.98;;
55218;SDS011;41088;44.012;20.902;2022-09-13T13:11:46;4.03;;;1.90;;
55218;SDS011;41088;44.012;20.902;2022-09-13T13:19:49;3.15;;;2.22;;
55218;SDS011;41088;44.012;20.902;2022-09-13T13:33:58;5.93;;;1.80;;
55218;SDS011;41088;44.012;20.902;2022-09-13T13:36:28;4.75;;;1.95;;
55218;SDS011;41088;44.012;20.902;2022-09-13T13:38:59;4.25;;;2.38;;
55218;SDS011;41088;44.012;20.902;2022-09-13T13:46:50;2.28;;;1.73;;
55218;SDS011;41088;44.012;20.902;2022-09-13T13:52:38;2.75;;;1.70;;
55218;SDS011;41088;44.012;20.902;2022-09-13T13:54:57;3.47;;;1.77;;
55218;SDS011;41088;44.012;20.902;2022-09-13T13:57:35;3.70;;;1.52;;
55218;SDS011;41088;44.012;20.902;2022-09-13T14:00:22;10.70;;;6.18;;
55218;SDS011;41088;44.012;20.902;2022-09-13T14:02:53;3.45;;;2.00;;
55218;SDS011;41088;44.012;20.902;2022-09-13T14:20:10;4.50;;;2.30;;
55218;SDS011;41088;44.012;20.902;2022-09-13T14:22:41;5.78;;;2.15;;
55218;SDS011;41088;44.012;20.902;2022-09-13T14:27:45;7.78;;;2.90;;
55218;SDS011;41088;44.012;20.902;2022-09-13T14:30:17;7.28;;;3.83;;
55218;SDS011;41088;44.012;20.902;2022-09-13T14:32:56;6.00;;;3.45;;
55218;SDS011;41088;44.012;20.902;2022-09-13T14:37:51;3.50;;;1.98;;
55218;SDS011;41088;44.012;20.902;2022-09-13T14:40:23;6.85;;;2.40;;
55218;SDS011;41088;44.012;20.902;2022-09-13T14:42:54;5.28;;;2.13;;
55218;SDS011;41088;44.012;20.902;2022-09-13T14:45:22;3.38;;;2.13;;
55218;SDS011;41088;44.012;20.902;2022-09-13T14:47:53;6.30;;;1.90;;
55218;SDS011;41088;44.012;20.902;2022-09-13T14:50:23;4.03;;;2.50;;
55218;SDS011;41088;44.012;20.902;2022-09-13T14:52:51;2.88;;;2.00;;
55218;SDS011;41088;44.012;20.902;2022-09-13T14:55:22;5.90;;;3.50;;
55218;SDS011;41088;44.012;20.902;2022-09-13T14:57:53;7.95;;;2.92;;
55218;SDS011;41088;44.012;20.902;2022-09-13T15:00:22;6.93;;;2.45;;
55218;SDS011;41088;44.012;20.902;2022-09-13T15:03:02;3.38;;;2.30;;
55218;SDS011;41088;44.012;20.902;2022-09-13T15:07:57;4.22;;;2.13;;
55218;SDS011;41088;44.012;20.902;2022-09-13T15:10:25;3.95;;;2.20;;
55218;SDS011;41088;44.012;20.902;2022-09-13T15:17:58;4.82;;;2.85;;
55218;SDS011;41088;44.012;20.902;2022-09-13T15:23:40;5.00;;;2.53;;
55218;SDS011;41088;44.012;20.902;2022-09-13T15:26:19;4.13;;;2.05;;
55218;SDS011;41088;44.012;20.902;2022-09-13T15:34:10;5.00;;;2.38;;
55218;SDS011;41088;44.012;20.902;2022-09-13T15:36:42;4.80;;;2.70;;
55218;SDS011;41088;44.012;20.902;2022-09-13T15:39:13;5.10;;;2.35;;
55218;SDS011;41088;44.012;20.902;2022-09-13T15:42:11;4.60;;;2.47;;
55218;SDS011;41088;44.012;20.902;2022-09-13T15:44:38;8.32;;;2.60;;
55218;SDS011;41088;44.012;20.902;2022-09-13T15:47:12;4.75;;;2.70;;
55218;SDS011;41088;44.012;20.902;2022-09-13T15:49:45;6.63;;;2.80;;
55218;SDS011;41088;44.012;20.902;2022-09-13T15:52:15;9.68;;;2.97;;
55218;SDS011;41088;44.012;20.902;2022-09-13T15:54:42;6.63;;;2.78;;
55218;SDS011;41088;44.012;20.902;2022-09-13T15:57:31;3.92;;;2.67;;
55218;SDS011;41088;44.012;20.902;2022-09-13T15:59:57;6.03;;;3.10;;
55218;SDS011;41088;44.012;20.902;2022-09-13T16:02:27;9.30;;;3.15;;
55218;SDS011;41088;44.012;20.902;2022-09-13T16:04:57;4.13;;;2.83;;
55218;SDS011;41088;44.012;20.902;2022-09-13T16:07:24;6.97;;;3.08;;
55218;SDS011;41088;44.012;20.902;2022-09-13T16:09:51;6.65;;;2.70;;
55218;SDS011;41088;44.012;20.902;2022-09-13T16:12:18;6.60;;;3.13;;
55218;SDS011;41088;44.012;20.902;2022-09-13T16:14:49;4.88;;;3.20;;
55218;SDS011;41088;44.012;20.902;2022-09-13T16:17:19;6.35;;;4.00;;
55218;SDS011;41088;44.012;20.902;2022-09-13T16:19:49;14.63;;;4.40;;
55218;SDS011;41088;44.012;20.902;2022-09-13T16:22:16;6.72;;;4.30;;
55218;SDS011;41088;44.012;20.902;2022-09-13T16:24:42;7.03;;;3.38;;
55218;SDS011;41088;44.012;20.902;2022-09-13T16:27:09;9.68;;;3.30;;
55218;SDS011;41088;44.012;20.902;2022-09-13T16:29:40;8.27;;;3.45;;
55218;SDS011;41088;44.012;20.902;2022-09-13T16:32:11;7.57;;;3.53;;
55218;SDS011;41088;44.012;20.902;2022-09-13T16:34:37;6.53;;;4.05;;
55218;SDS011;41088;44.012;20.902;2022-09-13T16:37:04;10.02;;;5.75;;
55218;SDS011;41088;44.012;20.902;2022-09-13T16:39:30;10.48;;;5.85;;
55218;SDS011;41088;44.012;20.902;2022-09-13T16:41:56;14.77;;;5.18;;
55218;SDS011;41088;44.012;20.902;2022-09-13T16:44:22;11.93;;;4.95;;
55218;SDS011;41088;44.012;20.902;2022-09-13T16:46:48;8.45;;;4.03;;
55218;SDS011;41088;44.012;20.902;2022-09-13T16:49:14;10.40;;;4.50;;
55218;SDS011;41088;44.012;20.902;2022-09-13T16:51:40;8.07;;;3.92;;
55218;SDS011;41088;44.012;20.902;2022-09-13T16:54:07;7.18;;;4.10;;
55218;SDS011;41088;44.012;20.902;2022-09-13T16:56:33;12.75;;;4.40;;
55218;SDS011;41088;44.012;20.902;2022-09-13T16:58:59;10.43;;;4.75;;
55218;SDS011;41088;44.012;20.902;2022-09-13T17:01:29;10.00;;;4.32;;
55218;SDS011;41088;44.012;20.902;2022-09-13T17:09:34;10.15;;;4.40;;
55218;SDS011;41088;44.012;20.902;2022-09-13T17:12:04;11.15;;;4.90;;
55218;SDS011;41088;44.012;20.902;2022-09-13T17:14:32;14.15;;;4.97;;
55218;SDS011;41088;44.012;20.902;2022-09-13T17:17:00;10.82;;;5.00;;
55218;SDS011;41088;44.012;20.902;2022-09-13T17:19:28;13.00;;;5.30;;
55218;SDS011;41088;44.012;20.902;2022-09-13T17:21:55;19.00;;;7.22;;
55218;SDS011;41088;44.012;20.902;2022-09-13T17:24:23;18.75;;;6.47;;
55218;SDS011;41088;44.012;20.902;2022-09-13T17:26:50;17.08;;;6.35;;
55218;SDS011;41088;44.012;20.902;2022-09-13T17:29:18;16.25;;;5.85;;
55218;SDS011;41088;44.012;20.902;2022-09-13T17:31:44;12.07;;;5.07;;
55218;SDS011;41088;44.012;20.902;2022-09-13T17:34:11;12.55;;;4.68;;
55218;SDS011;41088;44.012;20.902;2022-09-13T17:36:39;9.88;;;4.85;;
55218;SDS011;41088;44.012;20.902;2022-09-13T17:39:06;7.78;;;4.20;;
55218;SDS011;41088;44.012;20.902;2022-09-13T17:41:33;9.23;;;4.57;;
55218;SDS011;41088;44.012;20.902;2022-09-13T17:44:00;11.02;;;4.93;;
55218;SDS011;41088;44.012;20.902;2022-09-13T17:46:28;8.75;;;4.03;;
55218;SDS011;41088;44.012;20.902;2022-09-13T17:48:55;15.63;;;6.50;;
55218;SDS011;41088;44.012;20.902;2022-09-13T17:51:30;7.47;;;3.38;;
55218;SDS011;41088;44.012;20.902;2022-09-13T17:53:59;9.23;;;3.72;;
55218;SDS011;41088;44.012;20.902;2022-09-13T17:56:32;9.40;;;4.30;;
55218;SDS011;41088;44.012;20.902;2022-09-13T17:59:08;11.95;;;4.30;;
55218;SDS011;41088;44.012;20.902;2022-09-13T18:01:42;6.63;;;3.70;;
55218;SDS011;41088;44.012;20.902;2022-09-13T18:04:10;12.60;;;4.35;;
55218;SDS011;41088;44.012;20.902;2022-09-13T18:06:39;8.63;;;4.43;;
55218;SDS011;41088;44.012;20.902;2022-09-13T18:09:07;13.65;;;4.40;;
55218;SDS011;41088;44.012;20.902;2022-09-13T18:11:34;9.98;;;4.47;;
55218;SDS011;41088;44.012;20.902;2022-09-13T18:14:02;16.63;;;4.82;;
55218;SDS011;41088;44.012;20.902;2022-09-13T18:16:28;10.18;;;4.53;;
55218;SDS011;41088;44.012;20.902;2022-09-13T18:18:55;14.55;;;4.70;;
55218;SDS011;41088;44.012;20.902;2022-09-13T18:21:24;13.07;;;4.82;;
55218;SDS011;41088;44.012;20.902;2022-09-13T18:23:51;9.23;;;5.50;;
55218;SDS011;41088;44.012;20.902;2022-09-13T18:26:24;9.85;;;6.50;;
55218;SDS011;41088;44.012;20.902;2022-09-13T18:28:55;7.70;;;5.53;;
55218;SDS011;41088;44.012;20.902;2022-09-13T18:31:27;6.55;;;4.03;;
55218;SDS011;41088;44.012;20.902;2022-09-13T18:33:55;7.70;;;3.83;;
55218;SDS011;41088;44.012;20.902;2022-09-13T18:36:23;6.95;;;5.30;;
55218;SDS011;41088;44.012;20.902;2022-09-13T18:38:50;9.82;;;4.53;;
55218;SDS011;41088;44.012;20.902;2022-09-13T18:41:28;12.95;;;4.32;;
55218;SDS011;41088;44.012;20.902;2022-09-13T18:43:56;9.50;;;4.47;;
55218;SDS011;41088;44.012;20.902;2022-09-13T18:46:24;9.13;;;4.20;;
55218;SDS011;41088;44.012;20.902;2022-09-13T18:48:53;8.48;;;4.20;;
55218;SDS011;41088;44.012;20.902;2022-09-13T18:51:25;11.95;;;4.13;;
55218;SDS011;41088;44.012;20.902;2022-09-13T18:53:53;6.97;;;4.30;;
55218;SDS011;41088;44.012;20.902;2022-09-13T18:56:20;9.05;;;4.65;;
55218;SDS011;41088;44.012;20.902;2022-09-13T18:58:51;9.00;;;4.90;;